Time;durP1;ratioP1;P1;durP2;ratioP2;P2;SDS_P1;SDS_P2;PMS_P1;PMS_P2;Temp;Humidity;BMP_temperature;BMP_pressure;BME280_temperature;BME280_humidity;BME280_pressure;Samples;Min_cycle;Max_cycle;Signal;HPM_P1;HPM_P2
2022/09/01 00:02:14;;;;;;;;;;;;;;;20.41;100.00;98224.81;5060309;28;19925;-60
2022/09/01 00:04:43;;;;;;;;;;;;;;;20.41;100.00;98226.75;5060216;28;19929;-61
2022/09/01 00:07:11;;;;;;;;;;;;;;;20.65;100.00;98218.09;5060234;28;19952;-60
2022/09/01 00:09:37;;;;;;;;;;;;;;;20.41;100.00;98224.81;5063334;28;19924;-60
2022/09/01 00:12:04;;;;;;;;;;;;;;;20.27;100.00;98226.88;5063653;28;19992;-60
2022/09/01 00:14:32;;;;;;;;;;;;;;;20.09;100.00;98219.81;5061088;28;19928;-60
2022/09/01 00:16:58;;;;;;;;;;;;;;;20.17;100.00;98223.66;5060189;28;19925;-60
2022/09/01 00:19:24;;;;;;;;;;;;;;;20.23;100.00;98223.19;5061250;28;19929;-60
2022/09/01 00:21:51;;;;;;;;;;;;;;;20.16;100.00;98214.72;5063418;28;19925;-61
2022/09/01 00:24:19;;;;;;;;;;;;;;;20.05;100.00;98218.88;5058128;28;19932;-60
2022/09/01 00:26:45;;;;;;;;;;;;;;;20.11;100.00;98212.19;5063185;28;19956;-61
2022/09/01 00:29:12;;;;;;;;;;;;;;;20.24;100.00;98210.44;5063275;28;19952;-61
2022/09/01 00:31:39;;;;;;;;;;;;;;;20.04;100.00;98209.13;5059608;28;19953;-60
2022/09/01 00:34:05;;;;;;;;;;;;;;;20.22;100.00;98202.59;5059701;28;19925;-61
2022/09/01 00:36:32;;;;;;;;;;;;;;;20.24;100.00;98211.22;5061892;28;19984;-60
2022/09/01 00:38:58;;;;;;;;;;;;;;;20.50;100.00;98216.69;5063130;28;20019;-60
2022/09/01 00:41:27;;;;;;;;;;;;;;;20.60;100.00;98202.00;5061620;28;19925;-61
2022/09/01 00:43:55;;;;;;;;;;;;;;;20.51;100.00;98225.63;5059931;28;19988;-62
2022/09/01 00:46:22;;;;;;;;;;;;;;;20.58;100.00;98205.00;5060371;28;19952;-61
2022/09/01 00:48:52;;;;;;;;;;;;;;;20.58;100.00;98205.00;5063117;28;19995;-60
2022/09/01 00:51:19;;;;;;;;;;;;;;;20.50;100.00;98211.25;5062270;28;19956;-60
2022/09/01 00:53:45;;;;;;;;;;;;;;;20.34;100.00;98210.94;5059357;28;19931;-60
2022/09/01 00:56:13;;;;;;;;;;;;;;;20.15;100.00;98199.56;5059373;28;19932;-60
2022/09/01 00:58:40;;;;;;;;;;;;;;;20.12;100.00;98202.91;5059152;28;19932;-60
2022/09/01 01:01:08;;;;;;;;;;;;;;;20.08;100.00;98207.38;5059158;28;19981;-60
2022/09/01 01:03:34;;;;;;;;;;;;;;;20.17;100.00;98200.06;5061769;28;19968;-60
2022/09/01 01:06:04;;;;;;;;;;;;;;;20.19;100.00;98202.44;5062491;28;19979;-61
2022/09/01 01:08:32;;;;;;;;;;;;;;;20.33;100.00;98192.28;5060148;28;19929;-61
2022/09/01 01:10:59;;;;;;;;;;;;;;;20.14;100.00;98189.84;5058961;28;19925;-61
2022/09/01 01:13:27;;;;;;;;;;;;;;;20.27;100.00;98196.28;5060513;28;19932;-60
2022/09/01 01:15:55;;;;;;;;;;;;;;;20.08;100.00;98191.13;5062611;28;19919;-61
2022/09/01 01:18:21;;;;;;;;;;;;;;;20.28;100.00;98197.84;5061539;28;19936;-61
2022/09/01 01:23:39;;;;;;;;;;;;;;;20.54;100.00;98189.72;5061292;28;19948;-61
2022/09/01 01:26:09;;;;;;;;;;;;;;;20.24;100.00;98192.22;5050479;28;19963;-61
2022/09/01 01:28:37;;;;;;;;;;;;;;;20.20;100.00;98193.19;5061683;28;20035;-59
2022/09/01 01:31:05;;;;;;;;;;;;;;;19.90;100.00;98190.28;5061001;28;19932;-61
2022/09/01 01:33:33;;;;;;;;;;;;;;;19.86;100.00;98189.34;5059484;28;19929;-60
2022/09/01 01:36:00;;;;;;;;;;;;;;;19.92;100.00;98193.50;5058485;28;19925;-60
2022/09/01 01:38:29;;;;;;;;;;;;;;;19.88;100.00;98189.00;5060025;28;20077;-61
2022/09/01 01:40:55;;;;;;;;;;;;;;;19.87;100.00;98185.50;5061879;28;19920;-60
2022/09/01 01:43:25;;;;;;;;;;;;;;;20.17;100.00;98186.50;5060847;28;19925;-60
2022/09/01 01:45:52;;;;;;;;;;;;;;;19.93;100.00;98191.56;5058314;28;19932;-60
2022/09/01 01:48:21;;;;;;;;;;;;;;;20.06;100.00;98193.34;5059011;28;19925;-60
2022/09/01 01:50:48;;;;;;;;;;;;;;;20.31;100.00;98195.28;5061683;28;19948;-60
2022/09/01 01:53:16;;;;;;;;;;;;;;;20.51;100.00;98182.22;5061905;28;19952;-60
2022/09/01 01:55:42;;;;;;;;;;;;;;;20.07;100.00;98186.81;5058063;28;19925;-60
2022/09/01 01:58:10;;;;;;;;;;;;;;;20.08;100.00;98183.00;5058307;28;19936;-60
2022/09/01 02:00:38;;;;;;;;;;;;;;;19.97;100.00;98187.09;5059945;28;19996;-60
2022/09/01 02:03:06;;;;;;;;;;;;;;;20.10;100.00;98182.66;5061692;28;19924;-61
2022/09/01 02:05:33;;;;;;;;;;;;;;;20.30;100.00;98188.28;5058830;28;19924;-61
2022/09/01 02:08:03;;;;;;;;;;;;;;;20.22;100.00;98186.34;5058286;28;19944;-61
2022/09/01 02:10:30;;;;;;;;;;;;;;;20.30;100.00;98172.00;5060146;28;19937;-60
2022/09/01 02:13:03;;;;;;;;;;;;;;;20.18;100.00;98179.94;5061649;28;19956;-60
2022/09/01 02:15:31;;;;;;;;;;;;;;;20.05;100.00;98180.91;5059470;28;19921;-61
2022/09/01 02:17:59;;;;;;;;;;;;;;;20.12;100.00;98170.38;5058213;28;19975;-60
2022/09/01 02:20:28;;;;;;;;;;;;;;;19.94;100.00;98166.06;5059440;28;19975;-60
2022/09/01 02:22:55;;;;;;;;;;;;;;;19.82;100.00;98172.09;5059971;28;19936;-60
2022/09/01 02:25:22;;;;;;;;;;;;;;;19.85;100.00;98165.25;5060437;28;19925;-60
2022/09/01 02:27:52;;;;;;;;;;;;;;;19.83;100.00;98167.47;5057948;28;19921;-60
2022/09/01 02:30:18;;;;;;;;;;;;;;;19.71;100.00;98157.25;5058494;28;19925;-59
2022/09/01 02:32:44;;;;;;;;;;;;;;;19.82;100.00;98149.63;5061053;28;19960;-60
2022/09/01 02:35:13;;;;;;;;;;;;;;;19.99;100.00;98165.91;5061353;28;19967;-60
2022/09/01 02:37:42;;;;;;;;;;;;;;;19.72;100.00;98153.41;5057838;28;19985;-60
2022/09/01 02:40:10;;;;;;;;;;;;;;;19.44;100.00;98168.31;5057685;28;19993;-60
2022/09/01 02:42:39;;;;;;;;;;;;;;;19.45;100.00;98166.41;5060524;28;19925;-59
2022/09/01 02:45:14;;;;;;;;;;;;;;;19.56;100.00;98162.31;5061235;28;19975;-60
2022/09/01 02:47:40;;;;;;;;;;;;;;;19.50;100.00;98158.13;5057669;28;19932;-61
2022/09/01 02:50:12;;;;;;;;;;;;;;;19.60;100.00;98152.44;5057762;28;19947;-60
2022/09/01 02:52:40;;;;;;;;;;;;;;;19.59;100.00;98150.88;5060734;28;19925;-61
2022/09/01 02:55:07;;;;;;;;;;;;;;;19.57;100.00;98144.94;5061049;28;19992;-62
2022/09/01 02:57:34;;;;;;;;;;;;;;;19.47;100.00;98153.34;5058471;28;19957;-61
2022/09/01 03:00:00;;;;;;;;;;;;;;;19.78;100.00;98151.34;5057743;28;19933;-60
2022/09/01 03:02:27;;;;;;;;;;;;;;;19.71;100.00;98148.34;5057948;28;19925;-61
2022/09/01 03:04:54;;;;;;;;;;;;;;;19.61;100.00;98154.84;5061280;28;19924;-60
2022/09/01 03:07:22;;;;;;;;;;;;;;;19.29;100.00;98158.69;5060059;28;19931;-61
2022/09/01 03:09:51;;;;;;;;;;;;;;;19.59;100.00;98154.34;5057533;28;19960;-60
2022/09/01 03:12:18;;;;;;;;;;;;;;;19.62;100.00;98158.34;5057883;28;19932;-60
2022/09/01 03:14:44;;;;;;;;;;;;;;;19.73;100.00;98154.22;5060961;28;19931;-60
2022/09/01 03:17:11;;;;;;;;;;;;;;;19.65;100.00;98149.59;5061119;28;19996;-60
2022/09/01 03:19:43;;;;;;;;;;;;;;;19.97;100.00;98156.47;5057709;28;19925;-60
2022/09/01 03:22:09;;;;;;;;;;;;;;;20.03;100.00;98150.59;5057489;28;20016;-60
2022/09/01 03:24:36;;;;;;;;;;;;;;;20.09;100.00;98153.94;5059969;28;19931;-60
2022/09/01 03:27:03;;;;;;;;;;;;;;;20.17;100.00;98142.31;5060729;28;19951;-61
2022/09/01 03:29:30;;;;;;;;;;;;;;;20.36;100.00;98143.59;5058613;28;19952;-61
2022/09/01 03:31:56;;;;;;;;;;;;;;;20.44;100.00;98134.66;5057252;28;19984;-60
2022/09/01 03:34:22;;;;;;;;;;;;;;;20.48;100.00;98140.25;5058895;28;20027;-60
2022/09/01 03:36:49;;;;;;;;;;;;;;;20.36;100.00;98150.94;5064338;28;19952;-60
2022/09/01 03:39:17;;;;;;;;;;;;;;;20.30;100.00;98150.28;5064046;28;19935;-60
2022/09/01 03:41:43;;;;;;;;;;;;;;;20.54;100.00;98149.81;5060670;28;19925;-60
2022/09/01 03:44:12;;;;;;;;;;;;;;;20.66;100.00;98132.88;5060769;28;19971;-60
2022/09/01 03:46:39;;;;;;;;;;;;;;;20.52;100.00;98138.47;5063660;28;19958;-60
2022/09/01 03:49:06;;;;;;;;;;;;;;;20.49;100.00;98136.41;5064247;28;19932;-60
2022/09/01 03:51:33;;;;;;;;;;;;;;;20.51;100.00;98138.81;5061455;28;19928;-59
2022/09/01 03:54:00;;;;;;;;;;;;;;;20.59;100.00;98146.13;5060374;28;19960;-61
2022/09/01 03:56:27;;;;;;;;;;;;;;;20.68;100.00;98149.59;5062078;28;19981;-60
2022/09/01 03:58:55;;;;;;;;;;;;;;;20.77;100.00;98148.47;5063958;28;19967;-61
2022/09/01 04:01:23;;;;;;;;;;;;;;;20.86;100.00;98140.31;5063047;28;19976;-62
2022/09/01 04:03:50;;;;;;;;;;;;;;;20.89;100.00;98150.50;5060227;28;19967;-60
2022/09/01 04:06:18;;;;;;;;;;;;;;;20.90;100.00;98146.69;5060187;28;19929;-61
2022/09/01 04:08:45;;;;;;;;;;;;;;;20.81;100.00;98146.72;5063555;28;19947;-61
2022/09/01 04:11:15;;;;;;;;;;;;;;;20.80;100.00;98155.16;5063619;28;19971;-61
2022/09/01 04:13:42;;;;;;;;;;;;;;;20.76;100.00;98157.75;5060206;28;19925;-60
2022/09/01 04:18:03;;;;;;;;;;;;;;;20.75;100.00;98161.56;5060140;28;19997;-60
2022/09/01 04:19:14;;;;;;;;;;;;;;;20.65;100.00;98152.97;5051968;28;19932;-61
2022/09/01 04:21:41;;;;;;;;;;;;;;;20.54;100.00;98165.28;5051726;28;20350;-61
2022/09/01 04:24:08;;;;;;;;;;;;;;;20.53;100.00;98156.34;5059802;28;19948;-60
2022/09/01 04:26:34;;;;;;;;;;;;;;;20.51;100.00;98161.31;5062381;28;20020;-60
2022/09/01 04:29:01;;;;;;;;;;;;;;;20.40;100.00;98158.13;5063392;28;19925;-60
2022/09/01 04:31:29;;;;;;;;;;;;;;;20.23;100.00;98162.72;5061196;28;19959;-60
2022/09/01 04:33:57;;;;;;;;;;;;;;;20.09;100.00;98165.59;5059766;28;19925;-60
2022/09/01 04:36:26;;;;;;;;;;;;;;;19.83;100.00;98162.88;5060701;28;19984;-60
2022/09/01 04:38:55;;;;;;;;;;;;;;;19.59;100.00;98172.53;5063182;28;19944;-60
2022/09/01 04:41:24;;;;;;;;;;;;;;;19.71;100.00;98159.16;5062022;28;19952;-60
2022/09/01 04:43:51;;;;;;;;;;;;;;;19.51;100.00;98173.28;5059580;28;19925;-60
2022/09/01 04:46:19;;;;;;;;;;;;;;;19.65;100.00;98165.84;5059413;28;19936;-61
2022/09/01 04:48:46;;;;;;;;;;;;;;;19.58;100.00;98173.63;5062870;28;19929;-60
2022/09/01 04:51:14;;;;;;;;;;;;;;;19.62;100.00;98163.78;5062968;28;19947;-60
2022/09/01 04:53:47;;;;;;;;;;;;;;;19.68;100.00;98160.56;5059541;28;19925;-60
2022/09/01 04:56:14;;;;;;;;;;;;;;;19.89;100.00;98158.09;5059462;28;20094;-60
2022/09/01 04:58:40;;;;;;;;;;;;;;;20.02;100.00;98165.28;5051036;28;19968;-60
2022/09/01 05:01:13;;;;;;;;;;;;;;;20.05;100.00;98163.84;5051058;28;20606;-60
2022/09/01 05:03:40;;;;;;;;;;;;;;;20.19;100.00;98169.91;5050767;28;19961;-60
2022/09/01 05:06:12;;;;;;;;;;;;;;;20.34;100.00;98161.31;5050877;28;19925;-60
2022/09/01 05:08:38;;;;;;;;;;;;;;;20.35;100.00;98157.50;5050732;28;20370;-60
2022/09/01 05:11:08;;;;;;;;;;;;;;;20.32;100.00;98153.50;5050640;28;19929;-60
2022/09/01 05:13:37;;;;;;;;;;;;;;;20.20;100.00;98166.06;5050818;28;19933;-60
2022/09/01 05:16:06;;;;;;;;;;;;;;;19.95;100.00;98170.38;5051079;28;19937;-60
2022/09/01 05:18:32;;;;;;;;;;;;;;;20.00;100.00;98170.19;5050654;28;19925;-60
2022/09/01 05:21:09;;;;;;;;;;;;;;;19.81;100.00;98165.06;5050718;28;19936;-61
2022/09/01 05:23:36;;;;;;;;;;;;;;;19.90;100.00;98156.94;5050630;28;19936;-60
2022/09/01 05:26:13;;;;;;;;;;;;;;;20.01;100.00;98169.09;5058773;28;19936;-60
2022/09/01 05:28:42;;;;;;;;;;;;;;;20.08;100.00;98164.00;5062036;28;19925;-60
2022/09/01 05:31:08;;;;;;;;;;;;;;;19.72;100.00;98163.47;5062054;28;19925;-60
2022/09/01 05:33:35;;;;;;;;;;;;;;;19.66;100.00;98160.09;5059254;28;20122;-60
2022/09/01 05:36:06;;;;;;;;;;;;;;;19.40;100.00;98168.16;5058642;28;19940;-60
2022/09/01 05:38:33;;;;;;;;;;;;;;;19.06;100.00;98161.78;5060895;28;19925;-61
2022/09/01 05:41:02;;;;;;;;;;;;;;;19.33;100.00;98159.69;5062065;28;19967;-60
2022/09/01 05:43:29;;;;;;;;;;;;;;;19.56;100.00;98156.91;5060475;28;19931;-60
2022/09/01 05:45:57;;;;;;;;;;;;;;;19.64;100.00;98154.22;5058716;28;19971;-61
2022/09/01 05:48:24;;;;;;;;;;;;;;;19.79;100.00;98152.97;5059811;28;19925;-60
2022/09/01 05:50:55;;;;;;;;;;;;;;;20.01;100.00;98166.38;5062019;28;19963;-60
2022/09/01 05:53:24;;;;;;;;;;;;;;;19.96;100.00;98165.75;5061008;28;19936;-60
2022/09/01 05:55:55;;;;;;;;;;;;;;;20.22;100.00;98161.91;5058310;28;19925;-61
2022/09/01 05:58:23;;;;;;;;;;;;;;;19.89;100.00;98169.72;5058497;28;19932;-60
2022/09/01 06:00:51;;;;;;;;;;;;;;;20.13;100.00;98174.69;5061759;28;19991;-61
2022/09/01 06:03:20;;;;;;;;;;;;;;;20.41;100.00;98161.63;5061608;28;20011;-60
2022/09/01 06:05:51;;;;;;;;;;;;;;;20.49;100.00;98162.75;5058495;28;19936;-60
2022/09/01 06:08:18;;;;;;;;;;;;;;;20.72;100.00;98166.84;5058597;28;20069;-61
2022/09/01 06:10:45;;;;;;;;;;;;;;;20.64;100.00;98164.97;5061941;28;19936;-60
2022/09/01 06:13:14;;;;;;;;;;;;;;;20.59;100.00;98175.97;5061740;28;20345;-61
2022/09/01 06:15:41;;;;;;;;;;;;;;;20.28;100.00;98168.00;5058239;28;19925;-60
2022/09/01 06:18:10;;;;;;;;;;;;;;;20.83;100.00;98170.81;5058313;28;19921;-60
2022/09/01 06:20:40;;;;;;;;;;;;;;;20.96;100.00;98165.19;5061036;28;19925;-60
2022/09/01 06:23:06;;;;;;;;;;;;;;;21.07;100.00;98162.94;5061667;28;19925;-60
2022/09/01 06:25:32;;;;;;;;;;;;;;;21.21;100.00;98173.59;5059127;28;19967;-61
2022/09/01 06:27:59;;;;;;;;;;;;;;;20.72;100.00;98175.00;5058510;28;19925;-60
2022/09/01 06:30:26;;;;;;;;;;;;;;;20.56;100.00;98182.03;5059695;28;19925;-60
2022/09/01 06:32:53;;;;;;;;;;;;;;;20.17;100.00;98175.66;5061560;28;19932;-61
2022/09/01 06:35:19;;;;;;;;;;;;;;;20.39;100.00;98180.91;5061356;28;19932;-61
2022/09/01 06:37:47;;;;;;;;;;;;;;;21.07;100.00;98176.50;5058163;28;19933;-60
2022/09/01 06:40:16;;;;;;;;;;;;;;;21.10;100.00;98177.81;5058459;28;19925;-62
2022/09/01 06:42:43;;;;;;;;;;;;;;;20.77;100.00;98174.81;5058245;28;19948;-60
2022/09/01 06:45:11;;;;;;;;;;;;;;;21.22;100.00;98176.00;5058082;28;19929;-61
2022/09/01 06:47:38;;;;;;;;;;;;;;;21.20;100.00;98177.47;5061144;28;19925;-62
2022/09/01 06:50:07;;;;;;;;;;;;;;;20.84;100.00;98177.84;5061460;28;19988;-60
2022/09/01 06:52:33;;;;;;;;;;;;;;;20.50;100.00;98181.41;5058708;28;19925;-61
2022/09/01 06:55:01;;;;;;;;;;;;;;;20.54;100.00;98184.28;5058796;28;19951;-60
2022/09/01 06:57:28;;;;;;;;;;;;;;;20.61;100.00;98187.31;5059523;28;19931;-61
2022/09/01 06:59:55;;;;;;;;;;;;;;;20.23;100.00;98193.34;5073520;28;19921;-61
2022/09/01 07:02:21;;;;;;;;;;;;;;;20.11;100.00;98190.47;5058400;28;19959;-61
2022/09/01 07:04:48;;;;;;;;;;;;;;;19.83;100.00;98200.81;5061093;28;19996;-61
2022/09/01 07:07:15;;;;;;;;;;;;;;;19.83;100.00;98197.28;5061114;28;19964;-61
2022/09/01 07:09:42;;;;;;;;;;;;;;;20.13;100.00;98201.81;5060085;28;19921;-60
2022/09/01 07:12:10;;;;;;;;;;;;;;;20.57;100.00;98202.63;5061692;28;19932;-61
2022/09/01 07:14:37;;;;;;;;;;;;;;;20.16;100.00;98194.94;5064156;28;19932;-61
2022/09/01 07:17:03;;;;;;;;;;;;;;;20.00;100.00;98201.94;5064767;28;19992;-61
2022/09/01 07:19:30;;;;;;;;;;;;;;;19.91;100.00;98210.84;5062929;28;19968;-61
2022/09/01 07:21:56;;;;;;;;;;;;;;;19.84;100.00;98213.22;5061308;28;19957;-61
2022/09/01 07:24:24;;;;;;;;;;;;;;;19.79;100.00;98209.88;5062124;28;19925;-61
2022/09/01 07:26:51;;;;;;;;;;;;;;;19.74;100.00;98210.84;5064733;28;19925;-61
2022/09/01 07:29:21;;;;;;;;;;;;;;;20.05;100.00;98210.72;5064393;28;20178;-61
2022/09/01 07:31:48;;;;;;;;;;;;;;;20.15;100.00;98213.13;5061134;28;19955;-61
2022/09/01 07:34:15;;;;;;;;;;;;;;;20.48;100.00;98205.34;5061362;28;19929;-61
2022/09/01 07:36:43;;;;;;;;;;;;;;;20.40;100.00;98206.94;5052677;28;20450;-60
2022/09/01 07:39:10;;;;;;;;;;;;;;;20.62;100.00;98210.59;5052809;28;19988;-61
2022/09/01 07:41:37;;;;;;;;;;;;;;;20.66;100.00;98206.94;5052678;28;19956;-60
2022/09/01 07:44:04;;;;;;;;;;;;;;;20.43;100.00;98225.28;5052828;28;19925;-62
2022/09/01 07:46:32;;;;;;;;;;;;;;;20.46;100.00;98216.50;5052438;28;19932;-61
2022/09/01 07:49:00;;;;;;;;;;;;;;;20.59;100.00;98216.66;5059788;28;19932;-60
2022/09/01 07:51:27;;;;;;;;;;;;;;;20.29;100.00;98213.00;5061925;28;19925;-60
2022/09/01 07:53:53;;;;;;;;;;;;;;;20.30;100.00;98225.47;5062037;28;19932;-61
2022/09/01 07:56:21;;;;;;;;;;;;;;;20.48;100.00;98223.53;5061528;28;19925;-61
2022/09/01 07:58:49;;;;;;;;;;;;;;;20.72;100.00;98221.94;5064122;28;19980;-60
2022/09/01 08:01:17;;;;;;;;;;;;;;;20.57;100.00;98233.28;5064164;28;19978;-60
2022/09/01 08:03:46;;;;;;;;;;;;;;;20.65;100.00;98231.66;5060968;28;19964;-60
2022/09/01 08:06:14;;;;;;;;;;;;;;;20.75;100.00;98237.59;5060712;28;19925;-61
2022/09/01 08:08:40;;;;;;;;;;;;;;;21.03;100.00;98229.88;5064216;28;19929;-60
2022/09/01 08:11:07;;;;;;;;;;;;;;;20.85;100.00;98222.88;5063961;28;19964;-60
2022/09/01 08:13:34;;;;;;;;;;;;;;;20.69;100.00;98229.91;5061296;28;19992;-61
2022/09/01 08:16:03;;;;;;;;;;;;;;;20.46;100.00;98230.09;5060489;28;19940;-60
2022/09/01 08:18:29;;;;;;;;;;;;;;;20.37;100.00;98232.00;5062084;28;19921;-61
2022/09/01 08:20:57;;;;;;;;;;;;;;;20.36;100.00;98229.63;5062732;28;19963;-60
2022/09/01 08:23:25;;;;;;;;;;;;;;;20.38;100.00;98235.50;5062483;28;19984;-61
2022/09/01 08:25:52;;;;;;;;;;;;;;;20.34;100.00;98232.63;5060131;28;19948;-61
2022/09/01 08:28:19;;;;;;;;;;;;;;;20.34;100.00;98246.19;5060609;28;19960;-61
2022/09/01 08:30:47;;;;;;;;;;;;;;;20.43;100.00;98251.63;5063597;28;19920;-60
2022/09/01 08:33:14;;;;;;;;;;;;;;;20.39;100.00;98256.09;5063344;28;20373;-61
2022/09/01 08:35:40;;;;;;;;;;;;;;;20.52;100.00;98240.78;5060145;28;19952;-61
2022/09/01 08:38:08;;;;;;;;;;;;;;;20.78;100.00;98238.84;5060087;28;19925;-61
2022/09/01 08:40:35;;;;;;;;;;;;;;;21.00;100.00;98241.38;5062749;28;19925;-60
2022/09/01 08:43:06;;;;;;;;;;;;;;;20.93;100.00;98244.59;5063824;28;19931;-61
2022/09/01 08:45:37;;;;;;;;;;;;;;;20.91;100.00;98243.31;5061137;28;19925;-61
2022/09/01 08:48:08;;;;;;;;;;;;;;;21.22;100.00;98248.53;5060110;28;20008;-60
2022/09/01 08:50:35;;;;;;;;;;;;;;;21.31;100.00;98246.59;5062511;28;19921;-61
2022/09/01 08:53:06;;;;;;;;;;;;;;;21.04;100.00;98245.06;5063363;28;19999;-60
2022/09/01 08:55:37;;;;;;;;;;;;;;;20.97;100.00;98250.16;5060624;28;19925;-60
2022/09/01 08:58:05;;;;;;;;;;;;;;;20.95;100.00;98239.63;5059615;28;20347;-61
2022/09/01 09:00:38;;;;;;;;;;;;;;;21.11;100.00;98250.78;5061714;28;19928;-60
2022/09/01 09:03:10;;;;;;;;;;;;;;;21.34;100.00;98249.47;5063292;28;19924;-62
2022/09/01 09:05:43;;;;;;;;;;;;;;;21.27;100.00;98249.16;5060264;28;20372;-60
2022/09/01 09:08:21;;;;;;;;;;;;;;;21.19;100.00;98247.28;5059835;28;20017;-61
2022/09/01 09:10:54;;;;;;;;;;;;;;;21.10;100.00;98249.22;5059335;28;19952;-60
2022/09/01 09:13:25;;;;;;;;;;;;;;;20.81;100.00;98262.63;5060006;28;19931;-61
2022/09/01 09:15:54;;;;;;;;;;;;;;;20.55;100.00;98259.16;5062634;28;19935;-60
2022/09/01 09:18:25;;;;;;;;;;;;;;;20.49;100.00;98260.44;5061865;28;20031;-62
2022/09/01 09:20:52;;;;;;;;;;;;;;;20.48;100.00;98261.53;5059043;28;20420;-61
2022/09/01 09:23:24;;;;;;;;;;;;;;;20.44;100.00;98256.75;5059415;28;19932;-60
2022/09/01 09:25:52;;;;;;;;;;;;;;;20.64;100.00;98259.94;5060657;28;19976;-61
2022/09/01 09:28:18;;;;;;;;;;;;;;;20.79;100.00;98262.16;5059257;28;20000;-60
2022/09/01 09:30:45;;;;;;;;;;;;;;;20.93;100.00;98258.16;5062378;28;19928;-60
2022/09/01 09:33:31;;;;;;;;;;;;;;;21.00;100.00;98254.94;5061926;28;19921;-60
2022/09/01 09:36:15;;;;;;;;;;;;;;;21.14;100.00;98250.16;5058810;28;19925;-60
2022/09/01 09:38:41;;;;;;;;;;;;;;;21.02;100.00;98248.06;5050395;28;19943;-60
2022/09/01 09:41:15;;;;;;;;;;;;;;;21.01;100.00;98246.47;5050518;28;19925;-60
2022/09/01 09:43:43;;;;;;;;;;;;;;;20.91;100.00;98249.53;5050468;28;19990;-60
2022/09/01 09:46:21;;;;;;;;;;;;;;;21.11;100.00;98250.00;5050535;28;19921;-60
2022/09/01 09:48:48;;;;;;;;;;;;;;;21.19;100.00;98247.28;5050340;28;19929;-60
2022/09/01 09:51:16;;;;;;;;;;;;;;;21.02;100.00;98241.84;5050314;28;19956;-60
2022/09/01 09:53:42;;;;;;;;;;;;;;;20.74;100.00;98256.88;5058513;28;20002;-61
2022/09/01 09:56:17;;;;;;;;;;;;;;;20.95;100.00;98245.03;5058588;28;19972;-60
2022/09/01 09:58:45;;;;;;;;;;;;;;;20.85;100.00;98239.16;5058448;28;19933;-60
2022/09/01 10:01:14;;;;;;;;;;;;;;;20.88;100.00;98243.97;5058251;28;19960;-60
2022/09/01 10:03:43;;;;;;;;;;;;;;;20.81;100.00;98244.44;5057777;28;20289;-61
2022/09/01 10:06:11;;;;;;;;;;;;;;;20.82;100.00;98248.75;5058496;28;19957;-60
2022/09/01 10:08:43;;;;;;;;;;;;;;;20.90;100.00;98233.56;5061527;28;19925;-61
2022/09/01 10:11:12;;;;;;;;;;;;;;;21.09;100.00;98238.66;5061864;28;19956;-60
2022/09/01 10:13:38;;;;;;;;;;;;;;;21.28;100.00;98239.09;5058591;28;19925;-61
2022/09/01 10:16:07;;;;;;;;;;;;;;;21.23;100.00;98233.84;5058530;28;20365;-61
2022/09/01 10:18:36;;;;;;;;;;;;;;;21.28;100.00;98244.53;5060656;28;19993;-60
2022/09/01 10:21:07;;;;;;;;;;;;;;;21.27;100.00;98241.00;5061954;28;19935;-59
2022/09/01 10:23:35;;;;;;;;;;;;;;;21.33;100.00;98239.72;5059300;28;19960;-60
2022/09/01 10:26:04;;;;;;;;;;;;;;;21.41;100.00;98238.91;5058232;28;19925;-60
2022/09/01 10:28:33;;;;;;;;;;;;;;;21.45;100.00;98242.53;5060190;28;19985;-61
2022/09/01 10:31:00;;;;;;;;;;;;;;;21.12;100.00;98240.72;5061944;28;19927;-60
2022/09/01 10:33:27;;;;;;;;;;;;;;;20.84;100.00;98251.94;5059937;28;19935;-60
2022/09/01 10:35:54;;;;;;;;;;;;;;;20.89;100.00;98249.03;5058347;28;19959;-61
2022/09/01 10:38:21;;;;;;;;;;;;;;;20.97;100.00;98239.31;5058753;28;19921;-60
2022/09/01 10:41:05;;;;;;;;;;;;;;;20.99;100.00;98240.56;5061636;28;19960;-62
2022/09/01 10:43:41;;;;;;;;;;;;;;;20.71;100.00;98246.66;5060002;28;19921;-63
2022/09/01 10:46:09;;;;;;;;;;;;;;;20.70;100.00;98251.31;5062162;28;19925;-60
2022/09/01 10:48:37;;;;;;;;;;;;;;;20.80;100.00;98252.88;5064790;28;19956;-60
2022/09/01 10:51:27;;;;;;;;;;;;;;;21.04;100.00;98245.06;5065701;28;19963;-60
2022/09/01 10:53:54;;;;;;;;;;;;;;;21.16;100.00;98241.69;5043107;28;20021;-60
2022/09/01 10:56:24;;;;;;;;;;;;;;;21.14;100.00;98243.91;5062628;28;19929;-61
2022/09/01 10:59:00;;;;;;;;;;;;;;;21.14;100.00;98239.28;5065208;28;19960;-61
2022/09/01 11:01:45;;;;;;;;;;;;;;;21.32;100.00;98238.09;5063926;28;19921;-62
2022/09/01 11:04:12;;;;;;;;;;;;;;;21.44;100.00;98238.25;5061904;28;19995;-61
2022/09/01 11:07:01;;;;;;;;;;;;;;;21.45;100.00;98234.41;5064890;28;19972;-61
2022/09/01 11:09:29;;;;;;;;;;;;;;;21.46;100.00;98238.72;5063652;28;19987;-60
2022/09/01 11:12:17;;;;;;;;;;;;;;;21.32;100.00;98238.09;5061888;28;19936;-61
2022/09/01 11:14:50;;;;;;;;;;;;;;;21.49;100.00;98231.81;5050180;28;19983;-60
2022/09/01 11:17:19;;;;;;;;;;;;;;;21.62;100.00;98227.31;5053200;28;19925;-60
2022/09/01 11:19:47;;;;;;;;;;;;;;;21.71;100.00;98225.34;5053093;28;19996;-60
2022/09/01 11:22:25;;;;;;;;;;;;;;;21.78;100.00;98226.44;5053204;28;20008;-61
2022/09/01 11:25:05;;;;;;;;;;;;;;;21.70;100.00;98219.09;5058019;28;19929;-61
2022/09/01 11:27:50;;;;;;;;;;;;;;;21.71;100.00;98226.13;5062563;28;19925;-61
2022/09/01 11:30:18;;;;;;;;;;;;;;;21.71;100.00;98219.91;5061481;28;19925;-62
2022/09/01 11:32:46;;;;;;;;;;;;;;;21.52;100.00;98220.31;5064578;28;19952;-60
2022/09/01 11:35:16;;;;;;;;;;;;;;;21.36;96.86;98211.91;5064923;28;19959;-60
2022/09/01 11:37:43;;;;;;;;;;;;;;;21.23;100.00;98221.03;5052793;28;20020;-61
2022/09/01 11:40:11;;;;;;;;;;;;;;;21.35;96.78;98218.44;5052907;28;20043;-60
2022/09/01 11:42:39;;;;;;;;;;;;;;;21.20;97.52;98223.63;5052514;28;19936;-60
2022/09/01 11:45:13;;;;;;;;;;;;;;;21.61;98.58;98218.34;5052495;28;19952;-61
2022/09/01 11:47:43;;;;;;;;;;;;;;;21.58;97.72;98213.56;5052071;28;19921;-61
2022/09/01 11:50:18;;;;;;;;;;;;;;;21.76;94.14;98217.78;5059651;28;19929;-60
2022/09/01 11:52:52;;;;;;;;;;;;;;;21.93;97.48;98206.06;5060613;28;19925;-61
2022/09/01 11:55:28;;;;;;;;;;;;;;;22.00;98.01;98206.34;5062268;28;20671;-61
2022/09/01 11:57:54;;;;;;;;;;;;;;;22.01;98.62;98207.91;5060562;28;19961;-61
2022/09/01 12:00:25;;;;;;;;;;;;;;;22.11;96.53;98202.09;5061067;28;19952;-61
2022/09/01 12:02:53;;;;;;;;;;;;;;;22.21;97.14;98198.97;5064047;28;19976;-60
2022/09/01 12:05:26;;;;;;;;;;;;;;;22.29;96.83;98197.31;5063236;28;19927;-60
2022/09/01 12:07:52;;;;;;;;;;;;;;;22.23;91.71;98210.31;5060079;28;19952;-60
2022/09/01 12:10:20;;;;;;;;;;;;;;;21.85;92.40;98210.38;5060421;28;19929;-60
2022/09/01 12:12:47;;;;;;;;;;;;;;;21.96;94.03;98205.41;5063537;28;19963;-60
2022/09/01 12:15:18;;;;;;;;;;;;;;;22.00;91.22;98206.34;5063715;28;19936;-61
2022/09/01 12:17:45;;;;;;;;;;;;;;;21.97;90.47;98204.28;5067381;28;19993;-60
2022/09/01 12:20:23;;;;;;;;;;;;;;;21.92;87.87;98194.38;5052041;28;19925;-62
2022/09/01 12:22:50;;;;;;;;;;;;;;;21.91;89.02;98192.00;5051983;28;19996;-61
2022/09/01 12:25:19;;;;;;;;;;;;;;;22.11;90.19;98188.50;5060229;28;19955;-60
2022/09/01 12:27:46;;;;;;;;;;;;;;;22.24;91.72;98190.16;5060374;28;19925;-61
2022/09/01 12:30:12;;;;;;;;;;;;;;;22.15;88.36;98192.16;5060280;28;19976;-60
2022/09/01 12:32:39;;;;;;;;;;;;;;;22.26;86.42;98182.44;5063027;28;19925;-61
2022/09/01 12:35:14;;;;;;;;;;;;;;;22.31;88.67;98184.97;5063676;28;19968;-60
2022/09/01 12:37:42;;;;;;;;;;;;;;;22.09;83.64;98176.34;5060154;28;19980;-60
2022/09/01 12:40:20;;;;;;;;;;;;;;;22.19;90.26;98176.75;5060095;28;19925;-61
2022/09/01 12:42:49;;;;;;;;;;;;;;;22.28;91.71;98179.41;5059823;28;20440;-60
2022/09/01 12:45:35;;;;;;;;;;;;;;;22.41;90.63;98189.22;5059707;28;19925;-61
2022/09/01 12:48:01;;;;;;;;;;;;;;;22.29;89.02;98181.78;5059878;28;19984;-61
2022/09/01 12:50:37;;;;;;;;;;;;;;;22.30;90.50;98188.03;5061088;28;19939;-60